sensor_id;sensor_type;location;lat;lon;timestamp;temperature;humidity
54960;DHT22;40860;51.710;8.736;2023-08-07T00:01:04;13.70;99.90
54960;DHT22;40860;51.710;8.736;2023-08-07T00:05:07;13.70;99.90
54960;DHT22;40860;51.710;8.736;2023-08-07T00:09:11;13.70;99.90
54960;DHT22;40860;51.710;8.736;2023-08-07T00:13:14;13.70;99.90
54960;DHT22;40860;51.710;8.736;2023-08-07T00:17:17;13.70;99.90
54960;DHT22;40860;51.710;8.736;2023-08-07T00:21:20;13.70;99.90
54960;DHT22;40860;51.710;8.736;2023-08-07T00:25:24;13.60;99.90
54960;DHT22;40860;51.710;8.736;2023-08-07T00:29:29;13.60;99.90
54960;DHT22;40860;51.710;8.736;2023-08-07T00:33:34;13.60;99.90
54960;DHT22;40860;51.710;8.736;2023-08-07T00:37:40;13.60;99.90
54960;DHT22;40860;51.710;8.736;2023-08-07T00:41:45;13.60;99.90
54960;DHT22;40860;51.710;8.736;2023-08-07T00:45:48;13.60;99.90
54960;DHT22;40860;51.710;8.736;2023-08-07T00:49:51;13.60;99.90
54960;DHT22;40860;51.710;8.736;2023-08-07T00:53:54;13.60;99.90
54960;DHT22;40860;51.710;8.736;2023-08-07T00:57:59;13.60;99.90
54960;DHT22;40860;51.710;8.736;2023-08-07T01:02:02;13.60;99.90
54960;DHT22;40860;51.710;8.736;2023-08-07T01:06:06;13.60;99.90
54960;DHT22;40860;51.710;8.736;2023-08-07T01:10:10;13.60;99.90
54960;DHT22;40860;51.710;8.736;2023-08-07T01:14:26;13.60;99.90
54960;DHT22;40860;51.710;8.736;2023-08-07T01:18:31;13.60;99.90
54960;DHT22;40860;51.710;8.736;2023-08-07T01:22:36;13.60;99.90
54960;DHT22;40860;51.710;8.736;2023-08-07T01:26:42;13.60;99.90
54960;DHT22;40860;51.710;8.736;2023-08-07T01:30:50;13.60;99.90
54960;DHT22;40860;51.710;8.736;2023-08-07T01:34:56;13.60;99.90
54960;DHT22;40860;51.710;8.736;2023-08-07T01:39:04;13.60;99.90
54960;DHT22;40860;51.710;8.736;2023-08-07T01:43:12;13.50;99.90
54960;DHT22;40860;51.710;8.736;2023-08-07T01:47:18;13.50;99.90
54960;DHT22;40860;51.710;8.736;2023-08-07T01:51:23;13.50;99.90
54960;DHT22;40860;51.710;8.736;2023-08-07T01:55:27;13.50;99.90
54960;DHT22;40860;51.710;8.736;2023-08-07T01:59:30;13.50;99.90
54960;DHT22;40860;51.710;8.736;2023-08-07T02:03:34;13.60;99.90
54960;DHT22;40860;51.710;8.736;2023-08-07T02:07:38;13.50;99.90
54960;DHT22;40860;51.710;8.736;2023-08-07T02:11:54;13.50;99.90
54960;DHT22;40860;51.710;8.736;2023-08-07T02:15:58;13.50;99.90
54960;DHT22;40860;51.710;8.736;2023-08-07T02:20:03;13.60;99.90
54960;DHT22;40860;51.710;8.736;2023-08-07T02:24:07;13.60;99.90
54960;DHT22;40860;51.710;8.736;2023-08-07T02:28:11;13.50;99.90
54960;DHT22;40860;51.710;8.736;2023-08-07T02:32:14;13.50;99.90
54960;DHT22;40860;51.710;8.736;2023-08-07T02:36:18;13.50;99.90
54960;DHT22;40860;51.710;8.736;2023-08-07T02:40:22;13.50;99.90
54960;DHT22;40860;51.710;8.736;2023-08-07T02:44:26;13.50;99.90
54960;DHT22;40860;51.710;8.736;2023-08-07T02:48:29;13.50;99.90
54960;DHT22;40860;51.710;8.736;2023-08-07T02:52:35;13.60;99.90
54960;DHT22;40860;51.710;8.736;2023-08-07T02:56:49;13.60;99.90
54960;DHT22;40860;51.710;8.736;2023-08-07T03:00:54;13.50;99.90
54960;DHT22;40860;51.710;8.736;2023-08-07T03:04:57;13.60;99.90
54960;DHT22;40860;51.710;8.736;2023-08-07T03:09:00;13.60;99.90
54960;DHT22;40860;51.710;8.736;2023-08-07T03:13:03;13.60;99.90
54960;DHT22;40860;51.710;8.736;2023-08-07T03:17:07;13.60;99.90
54960;DHT22;40860;51.710;8.736;2023-08-07T03:21:10;13.60;99.90
54960;DHT22;40860;51.710;8.736;2023-08-07T03:25:15;13.60;99.90
54960;DHT22;40860;51.710;8.736;2023-08-07T03:29:18;13.60;99.90
54960;DHT22;40860;51.710;8.736;2023-08-07T03:33:23;13.60;99.90
54960;DHT22;40860;51.710;8.736;2023-08-07T03:37:27;13.60;99.90
54960;DHT22;40860;51.710;8.736;2023-08-07T03:41:30;13.70;99.90
54960;DHT22;40860;51.710;8.736;2023-08-07T03:45:34;13.70;99.90
54960;DHT22;40860;51.710;8.736;2023-08-07T03:49:38;13.70;99.90
54960;DHT22;40860;51.710;8.736;2023-08-07T03:53:42;13.70;99.90
54960;DHT22;40860;51.710;8.736;2023-08-07T03:57:45;13.70;99.90
54960;DHT22;40860;51.710;8.736;2023-08-07T04:01:49;13.80;99.90
54960;DHT22;40860;51.710;8.736;2023-08-07T04:05:54;13.80;99.90
54960;DHT22;40860;51.710;8.736;2023-08-07T04:09:57;13.80;99.90
54960;DHT22;40860;51.710;8.736;2023-08-07T04:14:00;13.80;99.90
54960;DHT22;40860;51.710;8.736;2023-08-07T04:18:03;13.80;99.90
54960;DHT22;40860;51.710;8.736;2023-08-07T04:22:07;13.80;99.90
54960;DHT22;40860;51.710;8.736;2023-08-07T04:26:10;13.80;99.90
54960;DHT22;40860;51.710;8.736;2023-08-07T04:30:13;13.80;99.90
54960;DHT22;40860;51.710;8.736;2023-08-07T04:34:16;13.80;99.90
54960;DHT22;40860;51.710;8.736;2023-08-07T04:38:24;13.80;99.90
54960;DHT22;40860;51.710;8.736;2023-08-07T04:42:27;13.80;99.90
54960;DHT22;40860;51.710;8.736;2023-08-07T04:46:30;13.80;99.90
54960;DHT22;40860;51.710;8.736;2023-08-07T04:50:35;13.80;99.90
54960;DHT22;40860;51.710;8.736;2023-08-07T04:54:39;13.80;99.90
54960;DHT22;40860;51.710;8.736;2023-08-07T04:58:42;13.70;99.90
54960;DHT22;40860;51.710;8.736;2023-08-07T05:02:45;13.80;99.90
54960;DHT22;40860;51.710;8.736;2023-08-07T05:06:50;13.80;99.90
54960;DHT22;40860;51.710;8.736;2023-08-07T05:10:54;13.70;99.90
54960;DHT22;40860;51.710;8.736;2023-08-07T05:14:57;13.70;99.90
54960;DHT22;40860;51.710;8.736;2023-08-07T05:19:00;13.80;99.90
54960;DHT22;40860;51.710;8.736;2023-08-07T05:23:03;13.70;99.90
54960;DHT22;40860;51.710;8.736;2023-08-07T05:27:08;13.70;99.90
54960;DHT22;40860;51.710;8.736;2023-08-07T05:35:14;13.70;99.90
54960;DHT22;40860;51.710;8.736;2023-08-07T05:39:17;13.70;99.90
54960;DHT22;40860;51.710;8.736;2023-08-07T05:43:22;13.80;99.90
54960;DHT22;40860;51.710;8.736;2023-08-07T05:47:24;13.80;99.90
54960;DHT22;40860;51.710;8.736;2023-08-07T05:51:28;13.80;99.90
54960;DHT22;40860;51.710;8.736;2023-08-07T05:55:30;13.80;99.90
54960;DHT22;40860;51.710;8.736;2023-08-07T05:59:35;13.80;99.90
54960;DHT22;40860;51.710;8.736;2023-08-07T06:03:38;13.80;99.90
54960;DHT22;40860;51.710;8.736;2023-08-07T06:07:41;13.80;99.90
54960;DHT22;40860;51.710;8.736;2023-08-07T06:11:44;13.80;99.90
54960;DHT22;40860;51.710;8.736;2023-08-07T06:15:48;13.90;99.90
54960;DHT22;40860;51.710;8.736;2023-08-07T06:19:52;13.90;99.90
54960;DHT22;40860;51.710;8.736;2023-08-07T06:23:55;13.90;99.90
54960;DHT22;40860;51.710;8.736;2023-08-07T06:27:58;13.90;99.90
54960;DHT22;40860;51.710;8.736;2023-08-07T06:32:03;13.90;99.90
54960;DHT22;40860;51.710;8.736;2023-08-07T06:36:07;14.00;99.90
54960;DHT22;40860;51.710;8.736;2023-08-07T06:40:11;14.00;99.90
54960;DHT22;40860;51.710;8.736;2023-08-07T06:44:14;14.00;99.90
54960;DHT22;40860;51.710;8.736;2023-08-07T06:48:19;14.00;99.90
54960;DHT22;40860;51.710;8.736;2023-08-07T06:52:22;14.00;99.90
54960;DHT22;40860;51.710;8.736;2023-08-07T06:56:25;13.90;99.90
54960;DHT22;40860;51.710;8.736;2023-08-07T07:00:28;13.90;99.90
54960;DHT22;40860;51.710;8.736;2023-08-07T07:04:32;13.90;99.90
54960;DHT22;40860;51.710;8.736;2023-08-07T07:08:35;13.90;99.90
54960;DHT22;40860;51.710;8.736;2023-08-07T07:12:38;13.80;99.90
54960;DHT22;40860;51.710;8.736;2023-08-07T07:16:41;13.80;99.90
54960;DHT22;40860;51.710;8.736;2023-08-07T07:20:46;13.80;99.90
54960;DHT22;40860;51.710;8.736;2023-08-07T07:24:49;13.80;99.90
54960;DHT22;40860;51.710;8.736;2023-08-07T07:28:52;13.80;99.90
54960;DHT22;40860;51.710;8.736;2023-08-07T07:32:55;13.90;99.90
54960;DHT22;40860;51.710;8.736;2023-08-07T07:36:59;13.90;99.90
54960;DHT22;40860;51.710;8.736;2023-08-07T07:41:02;14.00;99.90
54960;DHT22;40860;51.710;8.736;2023-08-07T07:45:05;14.20;99.90
54960;DHT22;40860;51.710;8.736;2023-08-07T07:49:08;14.30;99.90
54960;DHT22;40860;51.710;8.736;2023-08-07T07:53:13;14.30;99.90
54960;DHT22;40860;51.710;8.736;2023-08-07T07:57:16;14.30;99.90
54960;DHT22;40860;51.710;8.736;2023-08-07T08:01:19;14.30;99.90
54960;DHT22;40860;51.710;8.736;2023-08-07T08:05:22;14.30;99.90
54960;DHT22;40860;51.710;8.736;2023-08-07T08:09:26;14.30;99.90
54960;DHT22;40860;51.710;8.736;2023-08-07T08:13:29;14.30;99.90
54960;DHT22;40860;51.710;8.736;2023-08-07T08:17:32;14.30;99.90
54960;DHT22;40860;51.710;8.736;2023-08-07T08:21:35;14.30;99.90
54960;DHT22;40860;51.710;8.736;2023-08-07T08:25:39;14.40;99.90
54960;DHT22;40860;51.710;8.736;2023-08-07T08:29:42;14.40;99.90
54960;DHT22;40860;51.710;8.736;2023-08-07T08:33:46;14.40;99.90
54960;DHT22;40860;51.710;8.736;2023-08-07T08:37:49;14.40;99.90
54960;DHT22;40860;51.710;8.736;2023-08-07T08:41:53;14.40;99.90
54960;DHT22;40860;51.710;8.736;2023-08-07T08:45:57;14.50;99.90
54960;DHT22;40860;51.710;8.736;2023-08-07T08:50:01;14.60;99.90
54960;DHT22;40860;51.710;8.736;2023-08-07T08:54:06;14.70;99.90
54960;DHT22;40860;51.710;8.736;2023-08-07T08:58:10;14.70;99.90
54960;DHT22;40860;51.710;8.736;2023-08-07T09:02:13;14.70;99.90
54960;DHT22;40860;51.710;8.736;2023-08-07T09:06:16;14.80;99.90
54960;DHT22;40860;51.710;8.736;2023-08-07T09:10:19;14.90;99.90
54960;DHT22;40860;51.710;8.736;2023-08-07T09:14:26;15.00;99.90
54960;DHT22;40860;51.710;8.736;2023-08-07T09:18:33;15.10;99.90
54960;DHT22;40860;51.710;8.736;2023-08-07T09:22:36;15.20;99.90
54960;DHT22;40860;51.710;8.736;2023-08-07T09:26:41;15.30;99.90
54960;DHT22;40860;51.710;8.736;2023-08-07T09:30:46;15.30;99.90
54960;DHT22;40860;51.710;8.736;2023-08-07T09:34:50;15.50;99.90
54960;DHT22;40860;51.710;8.736;2023-08-07T09:38:53;15.70;99.90
54960;DHT22;40860;51.710;8.736;2023-08-07T09:42:56;15.90;99.90
54960;DHT22;40860;51.710;8.736;2023-08-07T09:47:11;16.30;99.90
54960;DHT22;40860;51.710;8.736;2023-08-07T09:51:14;16.40;99.90
54960;DHT22;40860;51.710;8.736;2023-08-07T09:55:17;15.90;99.90
54960;DHT22;40860;51.710;8.736;2023-08-07T09:59:23;15.90;99.90
54960;DHT22;40860;51.710;8.736;2023-08-07T10:03:27;16.40;99.90
54960;DHT22;40860;51.710;8.736;2023-08-07T10:07:32;16.80;99.90
54960;DHT22;40860;51.710;8.736;2023-08-07T10:11:35;16.80;99.90
54960;DHT22;40860;51.710;8.736;2023-08-07T10:15:39;16.70;99.90
54960;DHT22;40860;51.710;8.736;2023-08-07T10:19:45;16.50;99.90
54960;DHT22;40860;51.710;8.736;2023-08-07T10:23:48;16.40;99.90
54960;DHT22;40860;51.710;8.736;2023-08-07T10:27:55;16.40;99.90
54960;DHT22;40860;51.710;8.736;2023-08-07T10:31:59;16.40;99.90
54960;DHT22;40860;51.710;8.736;2023-08-07T10:36:10;16.30;99.90
54960;DHT22;40860;51.710;8.736;2023-08-07T10:40:14;16.20;99.90
54960;DHT22;40860;51.710;8.736;2023-08-07T10:44:18;16.40;99.90
54960;DHT22;40860;51.710;8.736;2023-08-07T10:48:21;16.80;99.90
54960;DHT22;40860;51.710;8.736;2023-08-07T10:52:27;16.90;99.90
54960;DHT22;40860;51.710;8.736;2023-08-07T10:56:33;16.80;99.90
54960;DHT22;40860;51.710;8.736;2023-08-07T11:00:36;16.70;99.90
54960;DHT22;40860;51.710;8.736;2023-08-07T11:04:40;16.60;99.90
54960;DHT22;40860;51.710;8.736;2023-08-07T11:08:44;16.60;99.90
54960;DHT22;40860;51.710;8.736;2023-08-07T11:12:48;16.80;99.90
54960;DHT22;40860;51.710;8.736;2023-08-07T11:16:52;17.00;99.90
54960;DHT22;40860;51.710;8.736;2023-08-07T11:20:56;17.30;99.90
54960;DHT22;40860;51.710;8.736;2023-08-07T11:25:01;17.60;99.90
54960;DHT22;40860;51.710;8.736;2023-08-07T11:29:04;17.70;99.90
54960;DHT22;40860;51.710;8.736;2023-08-07T11:33:08;17.60;99.90
54960;DHT22;40860;51.710;8.736;2023-08-07T11:37:15;17.60;99.90
54960;DHT22;40860;51.710;8.736;2023-08-07T11:41:19;17.50;98.70
54960;DHT22;40860;51.710;8.736;2023-08-07T11:45:22;17.80;98.10
54960;DHT22;40860;51.710;8.736;2023-08-07T11:49:26;17.80;96.40
54960;DHT22;40860;51.710;8.736;2023-08-07T11:53:31;17.20;95.40
54960;DHT22;40860;51.710;8.736;2023-08-07T11:57:38;16.60;95.50
54960;DHT22;40860;51.710;8.736;2023-08-07T12:01:41;16.10;97.30
54960;DHT22;40860;51.710;8.736;2023-08-07T12:05:44;15.80;99.50
54960;DHT22;40860;51.710;8.736;2023-08-07T12:09:47;15.60;98.40
54960;DHT22;40860;51.710;8.736;2023-08-07T12:13:52;15.40;97.90
54960;DHT22;40860;51.710;8.736;2023-08-07T12:18:00;15.40;97.80
54960;DHT22;40860;51.710;8.736;2023-08-07T12:22:06;15.50;97.90
54960;DHT22;40860;51.710;8.736;2023-08-07T12:26:09;15.50;97.60
54960;DHT22;40860;51.710;8.736;2023-08-07T12:30:15;15.70;98.20
54960;DHT22;40860;51.710;8.736;2023-08-07T12:34:18;16.10;98.20
54960;DHT22;40860;51.710;8.736;2023-08-07T12:38:24;16.70;97.80
54960;DHT22;40860;51.710;8.736;2023-08-07T12:42:27;17.20;96.90
54960;DHT22;40860;51.710;8.736;2023-08-07T12:46:31;17.70;95.70
54960;DHT22;40860;51.710;8.736;2023-08-07T12:50:38;17.90;95.70
54960;DHT22;40860;51.710;8.736;2023-08-07T12:54:42;17.90;95.00
54960;DHT22;40860;51.710;8.736;2023-08-07T12:58:44;17.70;96.60
54960;DHT22;40860;51.710;8.736;2023-08-07T13:02:50;17.30;98.00
54960;DHT22;40860;51.710;8.736;2023-08-07T13:06:53;17.00;99.10
54960;DHT22;40860;51.710;8.736;2023-08-07T13:10:57;17.00;99.90
54960;DHT22;40860;51.710;8.736;2023-08-07T13:15:00;17.40;99.90
54960;DHT22;40860;51.710;8.736;2023-08-07T13:19:04;17.80;99.30
54960;DHT22;40860;51.710;8.736;2023-08-07T13:23:07;17.90;97.90
54960;DHT22;40860;51.710;8.736;2023-08-07T13:27:10;17.80;95.00
54960;DHT22;40860;51.710;8.736;2023-08-07T13:31:13;17.80;91.90
54960;DHT22;40860;51.710;8.736;2023-08-07T13:35:17;17.70;91.80
54960;DHT22;40860;51.710;8.736;2023-08-07T13:39:20;17.50;91.80
54960;DHT22;40860;51.710;8.736;2023-08-07T13:43:23;17.40;90.90
54960;DHT22;40860;51.710;8.736;2023-08-07T13:47:26;17.50;90.60
54960;DHT22;40860;51.710;8.736;2023-08-07T13:51:30;17.60;90.40
54960;DHT22;40860;51.710;8.736;2023-08-07T13:55:33;17.90;89.00
54960;DHT22;40860;51.710;8.736;2023-08-07T13:59:36;18.10;90.30
54960;DHT22;40860;51.710;8.736;2023-08-07T14:03:39;18.10;87.80
54960;DHT22;40860;51.710;8.736;2023-08-07T14:07:43;18.00;85.70
54960;DHT22;40860;51.710;8.736;2023-08-07T14:11:46;18.00;86.70
54960;DHT22;40860;51.710;8.736;2023-08-07T14:15:49;18.30;87.40
54960;DHT22;40860;51.710;8.736;2023-08-07T14:19:52;18.40;85.30
54960;DHT22;40860;51.710;8.736;2023-08-07T14:23:56;18.40;85.20
54960;DHT22;40860;51.710;8.736;2023-08-07T14:27:59;18.30;81.90
54960;DHT22;40860;51.710;8.736;2023-08-07T14:32:03;18.10;82.90
54960;DHT22;40860;51.710;8.736;2023-08-07T14:36:06;18.10;81.60
54960;DHT22;40860;51.710;8.736;2023-08-07T14:40:10;18.40;78.60
54960;DHT22;40860;51.710;8.736;2023-08-07T14:44:13;18.60;79.80
54960;DHT22;40860;51.710;8.736;2023-08-07T14:48:16;18.80;80.60
54960;DHT22;40860;51.710;8.736;2023-08-07T14:52:19;18.80;80.00
54960;DHT22;40860;51.710;8.736;2023-08-07T14:56:23;18.70;80.10
54960;DHT22;40860;51.710;8.736;2023-08-07T15:00:26;18.80;79.60
54960;DHT22;40860;51.710;8.736;2023-08-07T15:04:29;18.90;79.90
54960;DHT22;40860;51.710;8.736;2023-08-07T15:08:32;18.90;77.60
54960;DHT22;40860;51.710;8.736;2023-08-07T15:12:37;19.00;77.00
54960;DHT22;40860;51.710;8.736;2023-08-07T15:16:41;19.30;80.60
54960;DHT22;40860;51.710;8.736;2023-08-07T15:20:46;19.40;76.70
54960;DHT22;40860;51.710;8.736;2023-08-07T15:24:50;19.50;76.70
54960;DHT22;40860;51.710;8.736;2023-08-07T15:28:54;19.70;76.40
54960;DHT22;40860;51.710;8.736;2023-08-07T15:32:57;20.00;76.80
54960;DHT22;40860;51.710;8.736;2023-08-07T15:37:00;20.60;74.50
54960;DHT22;40860;51.710;8.736;2023-08-07T15:41:03;20.90;74.80
54960;DHT22;40860;51.710;8.736;2023-08-07T15:45:09;20.90;71.90
54960;DHT22;40860;51.710;8.736;2023-08-07T15:49:12;20.70;71.30
54960;DHT22;40860;51.710;8.736;2023-08-07T15:53:15;20.50;70.50
54960;DHT22;40860;51.710;8.736;2023-08-07T15:57:18;20.50;70.70
54960;DHT22;40860;51.710;8.736;2023-08-07T16:01:22;20.70;69.20
54960;DHT22;40860;51.710;8.736;2023-08-07T16:05:25;20.70;67.80
54960;DHT22;40860;51.710;8.736;2023-08-07T16:09:28;20.70;67.30
54960;DHT22;40860;51.710;8.736;2023-08-07T16:13:31;20.50;68.40
54960;DHT22;40860;51.710;8.736;2023-08-07T16:17:35;20.70;69.00
54960;DHT22;40860;51.710;8.736;2023-08-07T16:21:38;20.60;70.50
54960;DHT22;40860;51.710;8.736;2023-08-07T16:25:41;20.50;73.30
54960;DHT22;40860;51.710;8.736;2023-08-07T16:29:44;20.10;75.40
54960;DHT22;40860;51.710;8.736;2023-08-07T16:33:48;19.80;77.60
54960;DHT22;40860;51.710;8.736;2023-08-07T16:37:52;19.50;78.00
54960;DHT22;40860;51.710;8.736;2023-08-07T16:41:54;19.20;80.80
54960;DHT22;40860;51.710;8.736;2023-08-07T16:45:57;18.90;77.40
54960;DHT22;40860;51.710;8.736;2023-08-07T16:50:02;18.60;78.90
54960;DHT22;40860;51.710;8.736;2023-08-07T16:54:06;18.50;80.40
54960;DHT22;40860;51.710;8.736;2023-08-07T16:58:11;18.40;80.90
54960;DHT22;40860;51.710;8.736;2023-08-07T17:02:14;18.40;81.80
54960;DHT22;40860;51.710;8.736;2023-08-07T17:06:20;18.50;81.10
54960;DHT22;40860;51.710;8.736;2023-08-07T17:10:23;18.60;81.20
54960;DHT22;40860;51.710;8.736;2023-08-07T17:14:26;18.50;80.80
54960;DHT22;40860;51.710;8.736;2023-08-07T17:18:29;18.50;82.00
54960;DHT22;40860;51.710;8.736;2023-08-07T17:22:33;18.40;82.00
54960;DHT22;40860;51.710;8.736;2023-08-07T17:26:36;18.20;82.70
54960;DHT22;40860;51.710;8.736;2023-08-07T17:30:39;17.70;86.30
54960;DHT22;40860;51.710;8.736;2023-08-07T17:34:42;17.60;88.20
54960;DHT22;40860;51.710;8.736;2023-08-07T17:38:46;17.30;90.00
54960;DHT22;40860;51.710;8.736;2023-08-07T17:42:49;17.10;90.60
54960;DHT22;40860;51.710;8.736;2023-08-07T17:46:52;16.80;91.20
54960;DHT22;40860;51.710;8.736;2023-08-07T17:50:55;16.70;91.80
54960;DHT22;40860;51.710;8.736;2023-08-07T17:54:59;16.70;92.30
54960;DHT22;40860;51.710;8.736;2023-08-07T17:59:03;16.60;92.80
54960;DHT22;40860;51.710;8.736;2023-08-07T18:03:07;16.60;92.80
54960;DHT22;40860;51.710;8.736;2023-08-07T18:07:11;16.60;92.90
54960;DHT22;40860;51.710;8.736;2023-08-07T18:11:15;16.60;93.10
54960;DHT22;40860;51.710;8.736;2023-08-07T18:15:18;16.60;93.50
54960;DHT22;40860;51.710;8.736;2023-08-07T18:19:21;16.50;93.80
54960;DHT22;40860;51.710;8.736;2023-08-07T18:23:25;16.50;94.20
54960;DHT22;40860;51.710;8.736;2023-08-07T18:27:29;16.50;94.00
54960;DHT22;40860;51.710;8.736;2023-08-07T18:31:32;16.50;94.20
54960;DHT22;40860;51.710;8.736;2023-08-07T18:35:35;16.50;94.20
54960;DHT22;40860;51.710;8.736;2023-08-07T18:39:38;16.40;94.00
54960;DHT22;40860;51.710;8.736;2023-08-07T18:43:42;16.40;93.60
54960;DHT22;40860;51.710;8.736;2023-08-07T18:47:45;16.20;93.70
54960;DHT22;40860;51.710;8.736;2023-08-07T18:51:48;16.10;93.60
54960;DHT22;40860;51.710;8.736;2023-08-07T18:55:51;16.10;92.70
54960;DHT22;40860;51.710;8.736;2023-08-07T18:59:55;16.00;92.00
54960;DHT22;40860;51.710;8.736;2023-08-07T19:03:58;15.90;91.60
54960;DHT22;40860;51.710;8.736;2023-08-07T19:08:02;15.80;91.80
54960;DHT22;40860;51.710;8.736;2023-08-07T19:12:05;15.80;91.50
54960;DHT22;40860;51.710;8.736;2023-08-07T19:16:10;15.70;91.60
54960;DHT22;40860;51.710;8.736;2023-08-07T19:20:13;15.60;91.50
54960;DHT22;40860;51.710;8.736;2023-08-07T19:24:16;15.50;91.30
54960;DHT22;40860;51.710;8.736;2023-08-07T19:28:19;15.50;91.90
54960;DHT22;40860;51.710;8.736;2023-08-07T19:32:23;15.40;91.60
54960;DHT22;40860;51.710;8.736;2023-08-07T19:36:26;15.30;91.90
54960;DHT22;40860;51.710;8.736;2023-08-07T19:40:29;15.30;92.00
54960;DHT22;40860;51.710;8.736;2023-08-07T19:44:32;15.20;92.20
54960;DHT22;40860;51.710;8.736;2023-08-07T19:48:38;15.20;92.40
54960;DHT22;40860;51.710;8.736;2023-08-07T19:52:41;15.10;92.70
54960;DHT22;40860;51.710;8.736;2023-08-07T19:56:44;15.00;92.60
54960;DHT22;40860;51.710;8.736;2023-08-07T20:00:47;15.00;92.40
54960;DHT22;40860;51.710;8.736;2023-08-07T20:04:52;14.90;92.50
54960;DHT22;40860;51.710;8.736;2023-08-07T20:08:55;14.90;92.70
54960;DHT22;40860;51.710;8.736;2023-08-07T20:12:58;14.80;92.80
54960;DHT22;40860;51.710;8.736;2023-08-07T20:17:01;14.70;92.80
54960;DHT22;40860;51.710;8.736;2023-08-07T20:21:06;14.70;93.10
54960;DHT22;40860;51.710;8.736;2023-08-07T20:25:09;14.60;93.00
54960;DHT22;40860;51.710;8.736;2023-08-07T20:29:12;14.60;93.40
54960;DHT22;40860;51.710;8.736;2023-08-07T20:33:15;14.50;93.70
54960;DHT22;40860;51.710;8.736;2023-08-07T20:37:19;14.50;94.10
54960;DHT22;40860;51.710;8.736;2023-08-07T20:41:25;14.40;94.30
54960;DHT22;40860;51.710;8.736;2023-08-07T20:45:30;14.40;94.70
54960;DHT22;40860;51.710;8.736;2023-08-07T20:49:33;14.40;95.10
54960;DHT22;40860;51.710;8.736;2023-08-07T20:53:37;14.30;95.40
54960;DHT22;40860;51.710;8.736;2023-08-07T20:57:40;14.30;95.90
54960;DHT22;40860;51.710;8.736;2023-08-07T21:01:43;14.20;96.40
54960;DHT22;40860;51.710;8.736;2023-08-07T21:05:48;14.20;96.70
54960;DHT22;40860;51.710;8.736;2023-08-07T21:09:52;14.10;97.00
54960;DHT22;40860;51.710;8.736;2023-08-07T21:13:55;14.10;97.30
54960;DHT22;40860;51.710;8.736;2023-08-07T21:17:59;14.00;97.60
54960;DHT22;40860;51.710;8.736;2023-08-07T21:22:02;14.00;97.80
54960;DHT22;40860;51.710;8.736;2023-08-07T21:26:06;14.00;98.00
54960;DHT22;40860;51.710;8.736;2023-08-07T21:30:10;13.90;97.90
54960;DHT22;40860;51.710;8.736;2023-08-07T21:34:13;13.90;98.00
54960;DHT22;40860;51.710;8.736;2023-08-07T21:38:16;13.80;98.10
54960;DHT22;40860;51.710;8.736;2023-08-07T21:42:20;13.80;98.30
54960;DHT22;40860;51.710;8.736;2023-08-07T21:46:24;13.70;98.20
54960;DHT22;40860;51.710;8.736;2023-08-07T21:50:27;13.70;98.30
54960;DHT22;40860;51.710;8.736;2023-08-07T21:54:30;13.70;98.40
54960;DHT22;40860;51.710;8.736;2023-08-07T21:58:35;13.70;98.50
54960;DHT22;40860;51.710;8.736;2023-08-07T22:02:38;13.60;98.60
54960;DHT22;40860;51.710;8.736;2023-08-07T22:06:41;13.60;98.60
54960;DHT22;40860;51.710;8.736;2023-08-07T22:10:44;13.60;98.60
54960;DHT22;40860;51.710;8.736;2023-08-07T22:14:48;13.60;98.90
54960;DHT22;40860;51.710;8.736;2023-08-07T22:18:51;13.50;98.90
54960;DHT22;40860;51.710;8.736;2023-08-07T22:22:54;13.50;99.20
54960;DHT22;40860;51.710;8.736;2023-08-07T22:26:57;13.50;99.30
54960;DHT22;40860;51.710;8.736;2023-08-07T22:31:05;13.40;99.40
54960;DHT22;40860;51.710;8.736;2023-08-07T22:35:08;13.30;99.70
54960;DHT22;40860;51.710;8.736;2023-08-07T22:39:11;13.30;99.90
54960;DHT22;40860;51.710;8.736;2023-08-07T22:43:17;13.30;99.90
54960;DHT22;40860;51.710;8.736;2023-08-07T22:47:21;13.20;99.90
54960;DHT22;40860;51.710;8.736;2023-08-07T22:51:24;13.20;99.90
54960;DHT22;40860;51.710;8.736;2023-08-07T22:55:27;13.20;99.90
54960;DHT22;40860;51.710;8.736;2023-08-07T22:59:30;13.20;99.90
54960;DHT22;40860;51.710;8.736;2023-08-07T23:03:34;13.20;99.90
54960;DHT22;40860;51.710;8.736;2023-08-07T23:07:37;13.20;99.90
54960;DHT22;40860;51.710;8.736;2023-08-07T23:11:41;13.20;99.90
54960;DHT22;40860;51.710;8.736;2023-08-07T23:15:44;13.20;99.90
54960;DHT22;40860;51.710;8.736;2023-08-07T23:19:49;13.20;99.90
54960;DHT22;40860;51.710;8.736;2023-08-07T23:23:54;13.30;99.90
54960;DHT22;40860;51.710;8.736;2023-08-07T23:27:57;13.40;99.90
54960;DHT22;40860;51.710;8.736;2023-08-07T23:32:00;13.40;99.90
54960;DHT22;40860;51.710;8.736;2023-08-07T23:36:05;13.50;99.90
54960;DHT22;40860;51.710;8.736;2023-08-07T23:40:08;13.50;99.90
54960;DHT22;40860;51.710;8.736;2023-08-07T23:44:11;13.50;99.90
54960;DHT22;40860;51.710;8.736;2023-08-07T23:48:14;13.50;99.90
54960;DHT22;40860;51.710;8.736;2023-08-07T23:52:19;13.50;99.90
54960;DHT22;40860;51.710;8.736;2023-08-07T23:56:22;13.50;99.90
